createdAt,value
2017-06-26T00:00:45.723Z,16.57
2017-06-26T00:01:54.660Z,16.5
2017-06-26T00:03:03.843Z,16.57
2017-06-26T00:04:12.783Z,16.56
2017-06-26T00:05:21.719Z,16.56
2017-06-26T00:06:30.663Z,16.57
2017-06-26T00:07:39.600Z,16.56
2017-06-26T00:08:48.793Z,16.71
2017-06-26T00:09:57.728Z,16.75
2017-06-26T00:11:06.672Z,16.64
2017-06-26T00:12:15.609Z,16.52
2017-06-26T00:13:24.884Z,16.6
2017-06-26T00:14:34.123Z,16.58
2017-06-26T00:15:43.062Z,16.75
2017-06-26T00:16:52.004Z,16.63
2017-06-26T00:18:00.945Z,16.53
2017-06-26T00:19:09.970Z,16.57
2017-06-26T00:20:19.156Z,16.56
2017-06-26T00:21:28.100Z,16.53
2017-06-26T00:22:37.066Z,16.52
2017-06-26T00:23:46.320Z,16.53
2017-06-26T00:24:55.258Z,16.57
2017-06-26T00:26:04.505Z,16.6
2017-06-26T00:27:13.442Z,16.53
2017-06-26T00:28:22.377Z,16.6
2017-06-26T00:29:31.319Z,16.58
2017-06-26T00:30:40.254Z,16.56
2017-06-26T00:31:49.488Z,16.73
2017-06-26T00:32:58.432Z,16.61
2017-06-26T00:34:07.452Z,16.68
2017-06-26T00:35:16.390Z,16.58
2017-06-26T00:36:25.325Z,16.67
2017-06-26T00:37:34.514Z,16.7
2017-06-26T00:38:43.453Z,16.71
2017-06-26T00:39:52.388Z,16.73
2017-06-26T00:41:01.325Z,16.71
2017-06-26T00:42:10.260Z,16.56
2017-06-26T00:43:19.451Z,16.57
2017-06-26T00:44:28.716Z,16.56
2017-06-26T00:45:37.653Z,16.58
2017-06-26T00:46:46.676Z,16.5
2017-06-26T00:47:55.621Z,16.58
2017-06-26T00:49:04.808Z,16.53
2017-06-26T00:50:13.751Z,16.52
2017-06-26T00:51:22.723Z,16.57
2017-06-26T00:52:31.669Z,16.6
2017-06-26T00:53:40.610Z,16.58
2017-06-26T00:54:49.800Z,16.7
2017-06-26T00:55:58.736Z,16.73
2017-06-26T00:57:07.679Z,16.7
2017-06-26T00:58:16.616Z,16.68
2017-06-26T00:59:25.632Z,16.73
2017-06-26T01:00:34.833Z,16.7
2017-06-26T01:01:44.103Z,16.75
2017-06-26T01:02:53.043Z,16.71
2017-06-26T01:04:01.979Z,16.73
2017-06-26T01:05:10.916Z,16.76
2017-06-26T01:06:20.178Z,16.68
2017-06-26T01:07:29.115Z,16.75
2017-06-26T01:08:38.048Z,16.76
2017-06-26T01:09:46.991Z,16.71
2017-06-26T01:10:55.931Z,16.73
2017-06-26T01:12:05.174Z,16.67
2017-06-26T01:13:14.111Z,16.75
2017-06-26T01:14:23.138Z,16.73
2017-06-26T01:15:32.075Z,16.68
2017-06-26T01:16:41.011Z,16.71
2017-06-26T01:17:50.285Z,16.73
2017-06-26T01:18:59.306Z,16.56
2017-06-26T01:20:08.330Z,16.6
2017-06-26T01:21:17.268Z,16.6
2017-06-26T01:22:26.205Z,16.57
2017-06-26T01:23:35.392Z,16.52
2017-06-26T01:24:44.335Z,16.56
2017-06-26T01:25:53.270Z,16.35
2017-06-26T01:27:02.205Z,16.35
2017-06-26T01:28:11.158Z,16.34
2017-06-26T01:29:20.361Z,16.38
2017-06-26T01:30:29.295Z,16.35
2017-06-26T01:31:38.235Z,16.35
2017-06-26T01:32:47.180Z,16.39
2017-06-26T01:33:56.117Z,16.45
2017-06-26T01:35:05.362Z,16.46
2017-06-26T01:36:14.381Z,16.45
2017-06-26T01:37:23.318Z,16.43
2017-06-26T01:38:32.261Z,16.39
2017-06-26T01:39:41.197Z,16.39
2017-06-26T01:40:50.437Z,16.39
2017-06-26T01:41:59.698Z,16.41
2017-06-26T01:43:08.635Z,16.39
2017-06-26T01:44:17.571Z,16.31
2017-06-26T01:45:26.512Z,16.38
2017-06-26T01:46:35.702Z,16.48
2017-06-26T01:47:44.639Z,16.45
2017-06-26T01:48:53.576Z,16.5
2017-06-26T01:50:02.512Z,16.45
2017-06-26T01:51:11.452Z,16.48
2017-06-26T01:52:21.025Z,16.48
2017-06-26T01:53:29.973Z,16.48
2017-06-26T01:54:39.236Z,16.41
2017-06-26T01:55:48.181Z,16.45
2017-06-26T01:56:57.138Z,16.46
2017-06-26T01:58:06.649Z,16.5
2017-06-26T01:59:15.595Z,16.56
2017-06-26T02:00:24.526Z,16.53
2017-06-26T02:01:33.461Z,16.53
2017-06-26T02:02:42.400Z,16.48
2017-06-26T02:03:51.638Z,16.45
2017-06-26T02:05:00.576Z,16.38
2017-06-26T02:06:09.844Z,16.34
2017-06-26T02:07:18.779Z,16.31
2017-06-26T02:08:27.714Z,16.33
2017-06-26T02:09:36.955Z,16.31
2017-06-26T02:10:45.891Z,16.34
2017-06-26T02:11:54.831Z,16.42
2017-06-26T02:13:03.769Z,16.43
2017-06-26T02:14:12.708Z,16.41
2017-06-26T02:15:21.944Z,16.45
2017-06-26T02:16:30.888Z,16.49
2017-06-26T02:17:39.825Z,16.45
2017-06-26T02:18:48.763Z,16.46
2017-06-26T02:19:57.701Z,16.48
2017-06-26T02:21:06.938Z,16.43
2017-06-26T02:22:15.911Z,16.45
2017-06-26T02:23:24.848Z,16.48
2017-06-26T02:24:33.783Z,16.5
2017-06-26T02:25:42.809Z,16.45
2017-06-26T02:26:51.998Z,16.45
2017-06-26T02:28:00.935Z,16.34
2017-06-26T02:29:09.883Z,16.24
2017-06-26T02:30:18.823Z,16.23
2017-06-26T02:31:27.762Z,16.27
2017-06-26T02:32:37.005Z,16.35
2017-06-26T02:33:46.027Z,16.28
2017-06-26T02:34:54.967Z,16.35
2017-06-26T02:36:03.907Z,16.33
2017-06-26T02:37:12.847Z,16.39
2017-06-26T02:38:22.040Z,16.33
2017-06-26T02:39:30.982Z,16.43
2017-06-26T02:40:39.923Z,16.34
2017-06-26T02:41:48.860Z,16.3
2017-06-26T02:42:57.799Z,16.31
2017-06-26T02:44:07.048Z,16.33
2017-06-26T02:45:15.985Z,16.21
2017-06-26T02:46:24.929Z,16.31
2017-06-26T02:47:33.868Z,16.3
2017-06-26T02:48:42.806Z,16.33
2017-06-26T02:49:51.992Z,16.33
2017-06-26T02:51:00.941Z,16.34
2017-06-26T02:52:09.883Z,16.33
2017-06-26T02:53:18.818Z,16.33
2017-06-26T02:54:27.751Z,16.35
2017-06-26T02:55:36.991Z,16.33
2017-06-26T02:56:45.931Z,16.35
2017-06-26T02:57:54.873Z,16.3
2017-06-26T02:59:04.146Z,16.34
2017-06-26T03:00:13.086Z,16.34
2017-06-26T03:01:22.324Z,16.33
2017-06-26T03:02:31.261Z,16.45
2017-06-26T03:03:40.194Z,16.46
2017-06-26T03:04:49.135Z,16.42
2017-06-26T03:05:58.161Z,16.42
2017-06-26T03:07:07.403Z,16.42
2017-06-26T03:08:16.662Z,16.5
2017-06-26T03:09:25.604Z,16.46
2017-06-26T03:10:34.867Z,16.45
2017-06-26T03:11:43.808Z,16.48
2017-06-26T03:12:52.997Z,16.49
2017-06-26T03:14:01.934Z,16.45
2017-06-26T03:15:10.873Z,16.43
2017-06-26T03:16:19.817Z,16.45
2017-06-26T03:17:28.754Z,16.45
2017-06-26T03:18:37.992Z,16.56
2017-06-26T03:19:46.932Z,16.48
2017-06-26T03:20:55.871Z,16.53
2017-06-26T03:22:04.813Z,16.52
2017-06-26T03:23:13.757Z,16.49
2017-06-26T03:24:23.034Z,16.52
2017-06-26T03:25:31.973Z,16.48
2017-06-26T03:26:40.912Z,16.5
2017-06-26T03:27:49.851Z,16.57
2017-06-26T03:28:58.785Z,16.53
2017-06-26T03:30:08.021Z,16.52
2017-06-26T03:31:16.959Z,16.6
2017-06-26T03:32:25.913Z,16.61
2017-06-26T03:33:34.854Z,16.57
2017-06-26T03:34:43.791Z,16.68
2017-06-26T03:35:52.984Z,16.61
2017-06-26T03:37:01.919Z,16.67
2017-06-26T03:38:11.176Z,16.58
2017-06-26T03:39:20.124Z,16.73
2017-06-26T03:40:29.066Z,16.66
2017-06-26T03:41:38.308Z,16.63
2017-06-26T03:42:47.243Z,16.6
2017-06-26T03:43:56.186Z,16.5
2017-06-26T03:45:05.460Z,16.43
2017-06-26T03:46:14.395Z,16.45
2017-06-26T03:47:23.584Z,16.5
2017-06-26T03:48:32.525Z,16.57
2017-06-26T03:49:41.463Z,16.53
2017-06-26T03:50:50.402Z,16.66
2017-06-26T03:51:59.340Z,16.64
2017-06-26T03:53:08.535Z,16.56
2017-06-26T03:54:17.473Z,16.71
2017-06-26T03:55:26.407Z,16.67
2017-06-26T03:56:35.430Z,16.6
2017-06-26T03:57:44.455Z,16.71
2017-06-26T03:58:53.646Z,16.7
2017-06-26T04:00:02.588Z,16.75
2017-06-26T04:01:11.531Z,16.76
2017-06-26T04:02:20.472Z,16.73
2017-06-26T04:03:29.417Z,16.7
2017-06-26T04:04:38.606Z,16.79
2017-06-26T04:05:47.544Z,16.71
2017-06-26T04:06:56.491Z,16.73
2017-06-26T04:08:05.427Z,16.75
2017-06-26T04:09:14.367Z,16.78
2017-06-26T04:10:23.559Z,16.78
2017-06-26T04:11:32.523Z,16.78
2017-06-26T04:12:41.461Z,16.75
2017-06-26T04:13:50.399Z,16.88
2017-06-26T04:14:59.337Z,16.82
2017-06-26T04:16:08.864Z,16.81
2017-06-26T04:17:17.803Z,16.85
2017-06-26T04:18:26.742Z,16.86
2017-06-26T04:19:35.682Z,16.89
2017-06-26T04:20:44.620Z,16.89
2017-06-26T04:21:54.149Z,16.83
2017-06-26T04:23:03.083Z,16.93
2017-06-26T04:24:12.023Z,16.94
2017-06-26T04:25:20.965Z,16.96
2017-06-26T04:26:29.909Z,16.91
2017-06-26T04:27:39.149Z,16.89
2017-06-26T04:28:48.087Z,16.93
2017-06-26T04:29:57.031Z,16.94
2017-06-26T04:31:05.970Z,16.89
2017-06-26T04:32:14.919Z,16.89
2017-06-26T04:33:24.107Z,16.91
2017-06-26T04:34:33.045Z,16.89
2017-06-26T04:35:41.986Z,16.94
2017-06-26T04:36:50.922Z,16.97
2017-06-26T04:37:59.858Z,16.91
2017-06-26T04:39:09.134Z,17
2017-06-26T04:40:18.075Z,16.97
2017-06-26T04:41:27.011Z,16.89
2017-06-26T04:42:35.948Z,16.96
2017-06-26T04:43:44.905Z,16.94
2017-06-26T04:44:54.096Z,16.94
2017-06-26T04:46:03.037Z,16.94
2017-06-26T04:47:11.977Z,16.97
2017-06-26T04:48:20.919Z,16.96
2017-06-26T04:49:29.853Z,17.01
2017-06-26T04:50:39.041Z,16.97
2017-06-26T04:51:48.008Z,16.98
2017-06-26T04:52:56.945Z,17.07
2017-06-26T04:54:05.887Z,17.06
2017-06-26T04:55:14.825Z,17.11
2017-06-26T04:56:24.097Z,17.07
2017-06-26T04:57:33.123Z,17.12
2017-06-26T04:58:42.063Z,17.08
2017-06-26T04:59:51.000Z,17.14
2017-06-26T05:00:59.934Z,17.11
2017-06-26T05:02:09.128Z,17.16
2017-06-26T05:03:18.062Z,17.08
2017-06-26T05:04:26.998Z,17.08
2017-06-26T05:05:35.941Z,17.11
2017-06-26T05:06:44.878Z,17.11
2017-06-26T05:07:54.063Z,17.11
2017-06-26T05:09:03.089Z,17
2017-06-26T05:10:12.038Z,16.96
2017-06-26T05:11:21.064Z,16.91
2017-06-26T05:12:30.001Z,16.93
2017-06-26T05:13:39.190Z,16.98
2017-06-26T05:14:48.135Z,16.94
2017-06-26T05:15:57.089Z,16.94
2017-06-26T05:17:06.351Z,17
2017-06-26T05:18:15.291Z,16.97
2017-06-26T05:19:24.478Z,16.94
2017-06-26T05:20:33.419Z,16.91
2017-06-26T05:21:42.356Z,16.94
2017-06-26T05:22:51.299Z,16.97
2017-06-26T05:24:00.235Z,16.93
2017-06-26T05:25:09.423Z,16.97
2017-06-26T05:26:18.361Z,16.93
2017-06-26T05:27:27.299Z,16.94
2017-06-26T05:28:36.264Z,16.88
2017-06-26T05:29:45.215Z,16.88
2017-06-26T05:30:54.402Z,16.85
2017-06-26T05:32:03.345Z,16.85
2017-06-26T05:33:12.293Z,16.76
2017-06-26T05:34:21.319Z,16.79
2017-06-26T05:35:30.258Z,16.7
2017-06-26T05:36:39.451Z,16.76
2017-06-26T05:37:48.388Z,16.73
2017-06-26T05:38:57.409Z,16.79
2017-06-26T05:40:06.670Z,16.71
2017-06-26T05:41:15.694Z,16.71
2017-06-26T05:42:24.888Z,16.78
2017-06-26T05:43:33.824Z,16.75
2017-06-26T05:44:42.851Z,16.68
2017-06-26T05:45:51.790Z,16.68
2017-06-26T05:47:00.732Z,16.7
2017-06-26T05:48:09.923Z,16.67
2017-06-26T05:49:18.863Z,16.63
2017-06-26T05:50:27.885Z,16.75
2017-06-26T05:51:36.821Z,16.67
2017-06-26T05:52:45.757Z,16.58
2017-06-26T05:53:54.951Z,16.56
2017-06-26T05:55:03.894Z,16.56
2017-06-26T05:56:12.830Z,16.57
2017-06-26T05:57:21.855Z,16.56
2017-06-26T05:58:30.797Z,16.49
2017-06-26T05:59:39.982Z,16.53
2017-06-26T06:00:48.919Z,16.57
2017-06-26T06:01:57.852Z,16.56
2017-06-26T06:03:06.789Z,16.46
2017-06-26T06:04:15.728Z,16.34
2017-06-26T06:05:24.920Z,16.35
2017-06-26T06:06:33.941Z,16.28
2017-06-26T06:07:42.882Z,16.28
2017-06-26T06:08:51.825Z,16.15
2017-06-26T06:10:00.762Z,16.09
2017-06-26T06:11:09.955Z,16.11
2017-06-26T06:12:18.888Z,16.02
2017-06-26T06:13:27.906Z,15.97
2017-06-26T06:14:36.844Z,15.92
2017-06-26T06:15:45.783Z,15.9
2017-06-26T06:16:54.973Z,15.83
2017-06-26T06:18:04.241Z,15.82
2017-06-26T06:19:13.176Z,15.84
2017-06-26T06:20:22.116Z,15.72
2017-06-26T06:21:31.055Z,15.75
2017-06-26T06:22:40.304Z,15.71
2017-06-26T06:23:49.239Z,15.71
2017-06-26T06:24:58.179Z,15.68
2017-06-26T06:26:07.201Z,15.68
2017-06-26T06:27:16.143Z,15.6
2017-06-26T06:28:25.413Z,15.57
2017-06-26T06:29:34.350Z,15.49
2017-06-26T06:30:43.284Z,15.34
2017-06-26T06:31:52.308Z,15.39
2017-06-26T06:33:01.269Z,15.32
2017-06-26T06:34:10.455Z,15.38
2017-06-26T06:35:19.394Z,15.29
2017-06-26T06:36:28.332Z,15.2
2017-06-26T06:37:37.269Z,15.16
2017-06-26T06:38:46.206Z,15.03
2017-06-26T06:39:56.981Z,14.99
2017-06-26T06:41:08.749Z,14.83
2017-06-26T06:42:17.703Z,14.8
2017-06-26T06:43:26.640Z,14.7
2017-06-26T06:44:35.577Z,14.65
2017-06-26T06:45:44.768Z,14.64
2017-06-26T06:46:53.707Z,14.68
2017-06-26T06:48:02.648Z,14.64
2017-06-26T06:49:11.589Z,14.58
2017-06-26T06:50:21.054Z,14.55
2017-06-26T06:51:30.246Z,14.5
2017-06-26T06:52:39.193Z,14.43
2017-06-26T06:53:48.142Z,14.51
2017-06-26T06:54:57.286Z,14.45
2017-06-26T06:56:06.558Z,14.37
2017-06-26T06:57:16.113Z,14.39
2017-06-26T06:58:25.710Z,14.42
2017-06-26T06:59:35.289Z,14.36
2017-06-26T07:00:44.225Z,14.4
2017-06-26T07:01:53.697Z,14.39
2017-06-26T07:03:03.441Z,14.28
2017-06-26T07:04:13.495Z,14.24
2017-06-26T07:05:22.436Z,14.27
2017-06-26T07:06:31.382Z,14.21
2017-06-26T07:07:40.346Z,14.25
2017-06-26T07:08:49.545Z,14.18
2017-06-26T07:09:58.879Z,14.17
2017-06-26T07:11:07.967Z,14.14
2017-06-26T07:12:16.944Z,14.1
2017-06-26T07:13:25.999Z,14.15
2017-06-26T07:14:35.241Z,14.09
2017-06-26T07:15:44.293Z,14.07
2017-06-26T07:16:53.463Z,14.04
2017-06-26T07:18:02.556Z,14.04
2017-06-26T07:19:11.554Z,14.14
2017-06-26T07:20:20.765Z,14.15
2017-06-26T07:21:29.715Z,14.07
2017-06-26T07:22:38.978Z,14.07
2017-06-26T07:23:47.925Z,14.1
2017-06-26T07:24:56.892Z,14.27
2017-06-26T07:26:06.107Z,14.21
2017-06-26T07:27:15.070Z,14.24
2017-06-26T07:28:24.118Z,14.32
2017-06-26T07:29:33.177Z,14.36
2017-06-26T07:30:42.230Z,14.37
2017-06-26T07:31:51.448Z,14.35
2017-06-26T07:33:00.417Z,14.4
2017-06-26T07:34:09.386Z,14.36
2017-06-26T07:35:18.352Z,14.42
2017-06-26T07:36:27.333Z,14.45
2017-06-26T07:37:36.936Z,14.58
2017-06-26T07:38:45.901Z,14.57
2017-06-26T07:39:54.866Z,14.64
2017-06-26T07:41:04.170Z,14.65
2017-06-26T07:42:13.133Z,14.73
2017-06-26T07:43:22.436Z,14.69
2017-06-26T07:44:31.405Z,14.8
2017-06-26T07:45:40.460Z,14.94
2017-06-26T07:46:49.426Z,14.99
2017-06-26T07:47:58.399Z,15.03
2017-06-26T07:49:07.663Z,14.91
2017-06-26T07:50:16.728Z,15.02
2017-06-26T07:51:25.781Z,15.01
2017-06-26T07:52:34.751Z,15.02
2017-06-26T07:53:43.713Z,14.94
2017-06-26T07:54:52.932Z,15.01
2017-06-26T07:56:01.908Z,15.06
2017-06-26T07:57:10.884Z,15.03
2017-06-26T07:58:19.854Z,15.1
2017-06-26T07:59:28.819Z,15.2
2017-06-26T08:00:38.046Z,15.19
2017-06-26T08:01:47.011Z,15.17
2017-06-26T08:02:56.296Z,15.29
2017-06-26T08:04:05.266Z,15.34
2017-06-26T08:05:14.552Z,15.49
2017-06-26T08:06:23.829Z,15.49
2017-06-26T08:07:32.805Z,15.51
2017-06-26T08:08:41.775Z,15.51
2017-06-26T08:09:50.743Z,15.59
2017-06-26T08:10:59.708Z,15.69
2017-06-26T08:12:08.986Z,15.8
2017-06-26T08:13:17.959Z,15.83
2017-06-26T08:14:26.926Z,15.76
2017-06-26T08:15:35.915Z,15.83
2017-06-26T08:16:44.894Z,15.93
2017-06-26T08:17:54.114Z,15.86
2017-06-26T08:19:03.092Z,15.89
2017-06-26T08:20:12.056Z,16
2017-06-26T08:21:21.025Z,15.94
2017-06-26T08:22:30.161Z,15.93
2017-06-26T08:23:39.458Z,15.87
2017-06-26T08:24:48.408Z,15.82
2017-06-26T08:25:57.350Z,15.76
2017-06-26T08:27:06.679Z,15.75
2017-06-26T08:28:15.667Z,15.82
2017-06-26T08:29:24.921Z,15.94
2017-06-26T08:30:33.954Z,15.94
2017-06-26T08:31:42.927Z,15.9
2017-06-26T08:32:52.003Z,15.92
2017-06-26T08:34:01.012Z,15.87
2017-06-26T08:35:10.335Z,15.84
2017-06-26T08:36:19.330Z,15.9
2017-06-26T08:37:28.275Z,15.97
2017-06-26T08:38:37.325Z,15.89
2017-06-26T08:39:46.267Z,15.97
2017-06-26T08:40:55.634Z,16
2017-06-26T08:42:04.634Z,16.02
2017-06-26T08:43:13.797Z,16.08
2017-06-26T08:44:22.815Z,16.01
2017-06-26T08:45:31.826Z,16
2017-06-26T08:46:41.144Z,16.02
2017-06-26T08:47:50.227Z,16.04
2017-06-26T08:48:59.328Z,16.3
2017-06-26T08:50:08.273Z,16.35
2017-06-26T08:51:17.222Z,16.35
2017-06-26T08:52:26.455Z,16.33
2017-06-26T08:53:35.468Z,16.34
2017-06-26T08:54:44.462Z,16.45
2017-06-26T08:55:53.498Z,16.53
2017-06-26T08:57:02.475Z,16.56
2017-06-26T08:58:11.758Z,16.57
2017-06-26T08:59:20.711Z,16.35
2017-06-26T09:00:29.771Z,16.45
2017-06-26T09:01:38.728Z,16.39
2017-06-26T09:02:47.776Z,16.35
2017-06-26T09:03:57.200Z,16.38
2017-06-26T09:05:06.629Z,16.46
2017-06-26T09:06:15.710Z,16.39
2017-06-26T09:07:24.978Z,16.42
2017-06-26T09:08:34.038Z,16.34
2017-06-26T09:09:43.237Z,16.25
2017-06-26T09:10:52.515Z,16.33
2017-06-26T09:12:02.051Z,16.38
2017-06-26T09:13:11.201Z,16.31
2017-06-26T09:14:20.144Z,16.14
2017-06-26T09:15:29.401Z,16.08
2017-06-26T09:16:38.354Z,16.2
2017-06-26T09:17:47.304Z,16.25
2017-06-26T09:18:56.253Z,16.17
2017-06-26T09:20:05.194Z,16.14
2017-06-26T09:21:14.396Z,16.2
2017-06-26T09:22:23.346Z,16.3
2017-06-26T09:23:32.302Z,16.46
2017-06-26T09:24:41.258Z,16.39
2017-06-26T09:25:50.621Z,16.34
2017-06-26T09:26:59.959Z,16.35
2017-06-26T09:28:08.935Z,16.43
2017-06-26T09:29:17.888Z,16.46
2017-06-26T09:30:26.842Z,16.49
2017-06-26T09:31:36.116Z,16.53
2017-06-26T09:32:45.307Z,16.56
2017-06-26T09:33:54.252Z,16.52
2017-06-26T09:35:03.240Z,16.58
2017-06-26T09:36:12.183Z,16.58
2017-06-26T09:37:21.133Z,16.46
2017-06-26T09:38:30.348Z,16.33
2017-06-26T09:39:39.302Z,16.33
2017-06-26T09:40:48.259Z,16.3
2017-06-26T09:41:57.208Z,16.33
2017-06-26T09:43:06.165Z,16.28
2017-06-26T09:44:15.364Z,16.27
2017-06-26T09:45:24.312Z,16.31
2017-06-26T09:46:33.250Z,16.15
2017-06-26T09:47:42.195Z,16.24
2017-06-26T09:48:51.144Z,16.39
2017-06-26T09:50:00.337Z,16.46
2017-06-26T09:51:09.285Z,16.52
2017-06-26T09:52:18.235Z,16.52
2017-06-26T09:53:27.185Z,16.56
2017-06-26T09:54:36.134Z,16.57
2017-06-26T09:55:45.330Z,16.5
2017-06-26T09:56:54.277Z,16.57
2017-06-26T09:58:03.226Z,16.57
2017-06-26T09:59:12.175Z,16.53
2017-06-26T10:00:21.120Z,16.52
2017-06-26T10:01:30.322Z,16.46
2017-06-26T10:02:39.598Z,16.48
2017-06-26T10:03:48.546Z,16.5
2017-06-26T10:04:57.496Z,16.67
2017-06-26T10:06:06.450Z,16.73
2017-06-26T10:07:15.649Z,16.79
2017-06-26T10:08:24.595Z,16.86
2017-06-26T10:09:33.549Z,16.89
2017-06-26T10:10:42.495Z,17.04
2017-06-26T10:11:51.449Z,17.18
2017-06-26T10:13:00.640Z,17.26
2017-06-26T10:14:09.597Z,17.21
2017-06-26T10:15:18.541Z,17.3
2017-06-26T10:16:27.486Z,17.28
2017-06-26T10:17:36.429Z,17.25
2017-06-26T10:18:45.764Z,17.22
2017-06-26T10:19:58.473Z,17.33
2017-06-26T10:21:12.675Z,17.11
2017-06-26T10:22:26.325Z,17.18
2017-06-26T10:23:38.536Z,16.97
2017-06-26T10:24:51.155Z,17.07
2017-06-26T10:26:03.124Z,17.07
2017-06-26T10:27:14.853Z,17.07
2017-06-26T10:28:25.086Z,17.15
2017-06-26T10:29:34.377Z,17.16
2017-06-26T10:30:43.329Z,17.23
2017-06-26T10:31:52.280Z,17.28
2017-06-26T10:33:01.230Z,17.25
2017-06-26T10:34:10.177Z,17.33
2017-06-26T10:35:19.489Z,17.19
2017-06-26T10:36:28.444Z,17.31
2017-06-26T10:37:37.397Z,17.26
2017-06-26T10:38:46.434Z,17.43
2017-06-26T10:39:55.386Z,17.55
2017-06-26T10:41:04.850Z,17.63
2017-06-26T10:42:13.804Z,17.72
2017-06-26T10:43:22.832Z,17.86
2017-06-26T10:44:31.783Z,17.92
2017-06-26T10:45:40.823Z,17.95
2017-06-26T10:46:50.118Z,18
2017-06-26T10:47:59.687Z,18.03
2017-06-26T10:49:10.316Z,18.1
2017-06-26T10:50:22.033Z,18.07
2017-06-26T10:51:30.989Z,18.02
2017-06-26T10:52:40.244Z,18.14
2017-06-26T10:53:49.198Z,18.03
2017-06-26T10:54:58.148Z,18.03
2017-06-26T10:56:07.828Z,17.77
2017-06-26T10:57:17.395Z,17.59
2017-06-26T10:58:28.492Z,17.64
2017-06-26T10:59:38.848Z,17.71
2017-06-26T11:00:50.261Z,17.72
2017-06-26T11:02:01.770Z,17.75
2017-06-26T11:03:11.315Z,17.89
2017-06-26T11:04:21.288Z,17.9
2017-06-26T11:05:30.745Z,18.02
2017-06-26T11:06:40.256Z,17.99
2017-06-26T11:07:49.874Z,18.07
2017-06-26T11:08:59.129Z,17.9
2017-06-26T11:10:09.147Z,17.79
2017-06-26T11:11:19.112Z,17.7
2017-06-26T11:12:28.544Z,17.63
2017-06-26T11:13:38.425Z,17.55
2017-06-26T11:14:47.379Z,17.58
2017-06-26T11:15:56.586Z,17.56
2017-06-26T11:17:05.544Z,17.55
2017-06-26T11:18:14.492Z,17.52
2017-06-26T11:19:23.463Z,17.51
2017-06-26T11:20:32.550Z,17.48
2017-06-26T11:21:41.758Z,17.58
2017-06-26T11:22:51.299Z,17.58
2017-06-26T11:24:00.416Z,17.64
2017-06-26T11:25:09.359Z,17.7
2017-06-26T11:26:18.308Z,17.74
2017-06-26T11:27:27.514Z,17.74
2017-06-26T11:28:36.465Z,17.86
2017-06-26T11:29:45.413Z,17.93
2017-06-26T11:30:54.367Z,18.11
2017-06-26T11:32:03.685Z,18.14
2017-06-26T11:33:14.060Z,18.17
2017-06-26T11:34:24.046Z,18.23
2017-06-26T11:35:32.998Z,18.37
2017-06-26T11:36:41.955Z,18.27
2017-06-26T11:37:50.904Z,18.27
2017-06-26T11:39:00.111Z,18.27
2017-06-26T11:40:09.385Z,18.37
2017-06-26T11:41:18.336Z,18.23
2017-06-26T11:42:27.287Z,18.25
2017-06-26T11:43:36.242Z,18.27
2017-06-26T11:44:45.447Z,18.39
2017-06-26T11:45:54.465Z,18.41
2017-06-26T11:47:03.555Z,18.45
2017-06-26T11:48:12.617Z,18.52
2017-06-26T11:49:21.842Z,18.39
2017-06-26T11:50:31.104Z,18.42
2017-06-26T11:51:40.056Z,18.36
2017-06-26T11:52:49.047Z,18.42
2017-06-26T11:53:58.486Z,18.37
2017-06-26T11:55:08.007Z,18.37
2017-06-26T11:56:17.387Z,18.42
2017-06-26T11:57:26.529Z,18.52
2017-06-26T11:58:35.522Z,18.6
2017-06-26T11:59:44.869Z,18.54
2017-06-26T12:00:53.944Z,18.76
2017-06-26T12:02:03.256Z,18.82
2017-06-26T12:03:12.373Z,18.82
2017-06-26T12:04:21.364Z,18.82
2017-06-26T12:05:30.682Z,18.95
2017-06-26T12:06:39.679Z,19.1
2017-06-26T12:07:48.877Z,19.26
2017-06-26T12:08:57.911Z,19.33
2017-06-26T12:10:07.034Z,19.4
2017-06-26T12:11:15.985Z,19.32
2017-06-26T12:12:24.933Z,19.36
2017-06-26T12:13:34.139Z,19.4
2017-06-26T12:14:43.092Z,19.32
2017-06-26T12:15:52.067Z,19.36
2017-06-26T12:17:01.720Z,19.22
2017-06-26T12:18:10.663Z,19.25
2017-06-26T12:19:19.862Z,19.04
2017-06-26T12:20:28.806Z,18.8
2017-06-26T12:21:37.761Z,18.84
2017-06-26T12:22:46.719Z,18.82
2017-06-26T12:23:55.755Z,18.73
2017-06-26T12:25:04.979Z,18.72
2017-06-26T12:26:13.931Z,18.84
2017-06-26T12:27:22.949Z,18.92
2017-06-26T12:28:31.896Z,19.02
2017-06-26T12:29:40.843Z,19.14
2017-06-26T12:30:50.039Z,19.18
2017-06-26T12:31:58.982Z,19.26
2017-06-26T12:33:08.120Z,19.36
2017-06-26T12:34:17.073Z,19.47
2017-06-26T12:35:26.030Z,19.5
2017-06-26T12:36:35.279Z,19.51
2017-06-26T12:37:44.219Z,19.5
2017-06-26T12:38:53.244Z,19.55
2017-06-26T12:40:02.251Z,19.59
2017-06-26T12:41:11.211Z,19.59
2017-06-26T12:42:20.616Z,19.56
2017-06-26T12:43:29.574Z,19.54
2017-06-26T12:44:38.521Z,19.46
2017-06-26T12:45:47.469Z,19.48
2017-06-26T12:46:56.521Z,19.41
2017-06-26T12:48:05.767Z,19.26
2017-06-26T12:49:14.715Z,19.29
2017-06-26T12:50:23.670Z,19.25
2017-06-26T12:51:32.929Z,19.22
2017-06-26T12:52:41.872Z,19.22
2017-06-26T12:53:51.077Z,19.4
2017-06-26T12:55:00.022Z,19.48
2017-06-26T12:56:08.978Z,19.51
2017-06-26T12:57:18.051Z,19.68
2017-06-26T12:58:27.148Z,19.65
2017-06-26T12:59:36.415Z,19.65
2017-06-26T13:00:45.371Z,19.66
2017-06-26T13:01:55.519Z,19.63
2017-06-26T13:03:06.928Z,19.77
2017-06-26T13:04:16.721Z,19.84
2017-06-26T13:05:26.011Z,20.02
2017-06-26T13:06:34.958Z,20.02
2017-06-26T13:07:43.917Z,20.11
2017-06-26T13:08:52.965Z,20.17
2017-06-26T13:10:02.152Z,20.24
2017-06-26T13:11:11.463Z,20.32
2017-06-26T13:12:20.797Z,20.38
2017-06-26T13:13:30.153Z,20.32
2017-06-26T13:14:39.117Z,20.14
2017-06-26T13:15:48.114Z,20.23
2017-06-26T13:16:57.398Z,20.11
2017-06-26T13:18:06.488Z,20.18
2017-06-26T13:19:15.468Z,20.17
2017-06-26T13:20:24.420Z,20.32
2017-06-26T13:21:33.410Z,20.11
2017-06-26T13:22:42.633Z,20.14
2017-06-26T13:23:51.587Z,20.17
2017-06-26T13:25:00.766Z,20.21
2017-06-26T13:26:10.551Z,20.28
2017-06-26T13:27:20.261Z,20.42
2017-06-26T13:28:30.230Z,20.38
2017-06-26T13:29:41.452Z,20.43
2017-06-26T13:30:50.870Z,20.32
2017-06-26T13:32:00.164Z,20.14
2017-06-26T13:33:09.748Z,20.02
2017-06-26T13:34:19.679Z,20.1
2017-06-26T13:35:29.830Z,19.98
2017-06-26T13:36:39.253Z,20.02
2017-06-26T13:37:49.917Z,20.11
2017-06-26T13:39:00.015Z,20.01
2017-06-26T13:40:09.904Z,20.03
2017-06-26T13:41:19.477Z,20.03
2017-06-26T13:42:29.160Z,19.88
2017-06-26T13:43:39.020Z,19.88
2017-06-26T13:44:49.453Z,19.88
2017-06-26T13:45:59.451Z,19.98
2017-06-26T13:47:09.273Z,20.1
2017-06-26T13:48:19.701Z,20.06
2017-06-26T13:49:29.403Z,20.17
2017-06-26T13:50:39.235Z,20.05
2017-06-26T13:51:48.850Z,20.08
2017-06-26T13:52:59.183Z,20.16
2017-06-26T13:54:08.681Z,20.21
2017-06-26T13:55:18.442Z,20.31
2017-06-26T13:56:27.398Z,20.28
2017-06-26T13:57:36.833Z,20.42
2017-06-26T13:58:45.790Z,20.51
2017-06-26T13:59:54.824Z,20.54
2017-06-26T14:01:04.342Z,20.61
2017-06-26T14:02:14.091Z,20.59
2017-06-26T14:03:23.855Z,20.58
2017-06-26T14:04:33.135Z,20.76
2017-06-26T14:05:43.434Z,20.76
2017-06-26T14:06:53.445Z,20.74
2017-06-26T14:08:04.389Z,20.76
2017-06-26T14:09:15.606Z,20.72
2017-06-26T14:10:26.021Z,20.62
2017-06-26T14:11:36.096Z,20.69
2017-06-26T14:12:45.834Z,20.59
2017-06-26T14:13:55.128Z,20.7
2017-06-26T14:15:05.316Z,20.74
2017-06-26T14:16:14.877Z,20.8
2017-06-26T14:17:24.413Z,20.8
2017-06-26T14:18:33.659Z,20.84
2017-06-26T14:19:43.327Z,20.84
2017-06-26T14:20:53.493Z,20.87
2017-06-26T14:22:03.164Z,20.87
2017-06-26T14:23:12.728Z,20.88
2017-06-26T14:24:22.227Z,20.82
2017-06-26T14:25:31.983Z,20.89
2017-06-26T14:26:41.578Z,20.74
2017-06-26T14:27:51.040Z,20.59
2017-06-26T14:29:01.118Z,20.62
2017-06-26T14:30:10.459Z,20.58
2017-06-26T14:31:19.725Z,20.58
2017-06-26T14:32:30.157Z,20.51
2017-06-26T14:33:39.421Z,20.48
2017-06-26T14:34:48.659Z,20.38
2017-06-26T14:35:58.132Z,20.39
2017-06-26T14:37:07.364Z,20.47
2017-06-26T14:38:17.066Z,20.48
2017-06-26T14:39:26.476Z,20.55
2017-06-26T14:40:35.995Z,20.48
2017-06-26T14:41:45.452Z,20.59
2017-06-26T14:42:54.646Z,20.59
2017-06-26T14:44:04.414Z,20.52
2017-06-26T14:45:13.957Z,20.61
2017-06-26T14:46:23.235Z,20.72
2017-06-26T14:47:32.270Z,20.77
2017-06-26T14:48:41.231Z,20.88
2017-06-26T14:49:50.435Z,20.91
2017-06-26T14:50:59.626Z,20.98
2017-06-26T14:52:09.177Z,20.98
2017-06-26T14:53:18.478Z,21.1
2017-06-26T14:54:27.529Z,20.98